Decoded Metar for UKLL (LVOV in UKRAINE) (IATA:LWO) | Meteo·Mobile Aviation Weather
aviador You're here:

UKLL Decoded Metar

LVOV in UKRAINE
Report Time2019-07-23 07:00:00
UTC Time2019-07-23 07:22:47
Flight Rules vfr VFR
Wind280° at 6 kt
W.Decomp.*RWY 31: 5.0 kt HW 3.3 kt LCW
Visibility9999 m
Phenomena:N/A
Clouds:N/A
Expected CloudBase > 2,400 ft AGL from Temp-Dew spread
CeilingNone
Temp20°C (ISA +7)
Dew Point14°C (69% RH)
AAT19.1°C
QNH1019 hPa
Density Alt1,913 ft
Elevation1,066 ft
Report Wrong Elevation
Raw Report
METAR UKLL 230700Z 28003MPS 240V310 CAVOK 20/14 Q1019 R31/D NOSIG=

Extra information for UKLL:More info

Metar Taf Metar & Taf Last 4 Metars F.Rules Stats Wind Profile Meteogram Temp Stats Airport Information Weather charts Add Link Nearby VenuesMetar ALERT Operation Metar Decoded Social comments